Map

Track Data

SID SEASON NUMBER BASIN SUBBASIN NAME ISO_TIME NATURE LAT LON WMO_WIND WMO_PRES WMO_AGENCY TRACK_TYPE DIST2LAND LANDFALL IFLAG USA_AGENCY USA_ATCF_ID USA_LAT USA_LON USA_RECORD USA_STATUS USA_WIND USA_PRES USA_SSHS USA_R34_NE USA_R34_SE USA_R34_SW USA_R34_NW USA_R50_NE USA_R50_SE USA_R50_SW USA_R50_NW USA_R64_NE USA_R64_SE USA_R64_SW USA_R64_NW USA_POCI USA_ROCI USA_RMW USA_EYE TOKYO_LAT TOKYO_LON TOKYO_GRADE TOKYO_WIND TOKYO_PRES TOKYO_R50_DIR TOKYO_R50_LONG TOKYO_R50_SHORT TOKYO_R30_DIR TOKYO_R30_LONG TOKYO_R30_SHORT TOKYO_LAND CMA_LAT CMA_LON CMA_CAT CMA_WIND CMA_PRES HKO_LAT HKO_LON HKO_CAT HKO_WIND HKO_PRES NEWDELHI_LAT NEWDELHI_LON NEWDELHI_GRADE NEWDELHI_WIND NEWDELHI_PRES NEWDELHI_CI NEWDELHI_DP NEWDELHI_POCI REUNION_LAT REUNION_LON REUNION_TYPE REUNION_WIND REUNION_PRES REUNION_TNUM REUNION_CI REUNION_RMW REUNION_R34_NE REUNION_R34_SE REUNION_R34_SW REUNION_R34_NW REUNION_R50_NE REUNION_R50_SE REUNION_R50_SW REUNION_R50_NW REUNION_R64_NE REUNION_R64_SE REUNION_R64_SW REUNION_R64_NW BOM_LAT BOM_LON BOM_TYPE BOM_WIND BOM_PRES BOM_TNUM BOM_CI BOM_RMW BOM_R34_NE BOM_R34_SE BOM_R34_SW BOM_R34_NW BOM_R50_NE BOM_R50_SE BOM_R50_SW BOM_R50_NW BOM_R64_NE BOM_R64_SE BOM_R64_SW BOM_R64_NW BOM_ROCI BOM_POCI BOM_EYE BOM_POS_METHOD BOM_PRES_METHOD NADI_LAT NADI_LON NADI_CAT NADI_WIND NADI_PRES WELLINGTON_LAT WELLINGTON_LON WELLINGTON_WIND WELLINGTON_PRES DS824_LAT DS824_LON DS824_STAGE DS824_WIND DS824_PRES TD9636_LAT TD9636_LON TD9636_STAGE TD9636_WIND TD9636_PRES TD9635_LAT TD9635_LON TD9635_WIND TD9635_PRES TD9635_ROCI NEUMANN_LAT NEUMANN_LON NEUMANN_CLASS NEUMANN_WIND NEUMANN_PRES MLC_LAT MLC_LON MLC_CLASS MLC_WIND MLC_PRES USA_GUST BOM_GUST BOM_GUST_PER REUNION_GUST REUNION_GUST_PER USA_SEAHGT USA_SEARAD_NE USA_SEARAD_SE USA_SEARAD_SW USA_SEARAD_NW STORM_SPEED STORM_DIR
1985240N08148 1985 76 WP MM TESS 1985-08-28 00:00:00 NR 8.00000 148.100 main 1134 1133 __________O___ -1 8.00000 148.100 0 8 298
1985240N08148 1985 76 WP MM TESS 1985-08-28 03:00:00 NR 8.17828 147.764 main 1155 1154 __________P___ -1 8.17828 147.764 0 8 298
1985240N08148 1985 76 WP MM TESS 1985-08-28 06:00:00 NR 8.35515 147.423 main 1176 1176 __________P___ -1 8.35515 147.423 0 8 297
1985240N08148 1985 76 WP MM TESS 1985-08-28 09:00:00 NR 8.52945 147.070 main 1187 1187 __________P___ -1 8.52945 147.070 0 8 296
1985240N08148 1985 76 WP MM TESS 1985-08-28 12:00:00 NR 8.70000 146.700 main 1210 1210 __________O___ -1 8.70000 146.700 0 8 294
1985240N08148 1985 76 WP MM TESS 1985-08-28 15:00:00 NR 8.86685 146.310 main 1233 1233 __________P___ -1 8.86685 146.310 0 9 293
1985240N08148 1985 76 WP MM TESS 1985-08-28 18:00:00 NR 9.03497 145.907 main 1246 1246 __________P___ -1 9.03497 145.907 0 9 293
1985240N08148 1985 76 WP MM TESS 1985-08-28 21:00:00 NR 9.21059 145.501 main 1272 1272 __________P___ -1 9.21059 145.501 0 9 295
1985240N08148 1985 76 WP MM TESS 1985-08-29 00:00:00 NR 9.40000 145.100 main 1299 1299 __________O___ -1 9.40000 145.100 0 9 296
1985240N08148 1985 76 WP MM TESS 1985-08-29 03:00:00 NR 9.58601 144.730 main 1327 1327 __________P___ -1 9.58601 144.730 0 8 298
1985240N08148 1985 76 WP MM TESS 1985-08-29 06:00:00 NR 9.78965 144.364 main 1355 1355 __________P___ -1 9.78965 144.364 0 9 301
1985240N08148 1985 76 WP MM TESS 1985-08-29 09:00:00 NR 10.0235 143.992 main 1386 1386 __________P___ -1 10.0235 143.992 0 9 304
1985240N08148 1985 76 WP MM TESS 1985-08-29 12:00:00 NR 10.3000 143.600 main 1428 1428 __________O___ -1 10.3000 143.600 0 10 308
1985240N08148 1985 76 WP MM TESS 1985-08-29 15:00:00 NR 10.6440 143.176 main 1472 1472 __________P___ -1 10.6440 143.176 0 11 310
1985240N08148 1985 76 WP MM TESS 1985-08-29 18:00:00 NR 11.0274 142.730 main 1497 1497 __________P___ -1 11.0274 142.730 0 12 311
1985240N08148 1985 76 WP MM TESS 1985-08-29 21:00:00 NR 11.4221 142.269 main 1525 1522 __________P___ -1 11.4221 142.269 0 12 310
1985240N08148 1985 76 WP MM TESS 1985-08-30 00:00:00 NR 11.8000 141.800 main 1553 1550 __________O___ -1 11.8000 141.800 0 12 308
1985240N08148 1985 76 WP MM TESS 1985-08-30 03:00:00 NR 12.1293 141.348 main 1563 1563 __________P___ -1 12.1293 141.348 0 11 306
1985240N08148 1985 76 WP MM TESS 1985-08-30 06:00:00 NR 12.4369 140.887 main 1578 1578 __________P___ -1 12.4369 140.887 0 11 303
1985240N08148 1985 76 WP MM TESS 1985-08-30 09:00:00 NR 12.7261 140.407 main 1592 1550 __________P___ -1 12.7261 140.407 0 11 300
1985240N08148 1985 76 WP MM TESS 1985-08-30 12:00:00 NR 13.0000 139.900 main 1550 1499 __________O___ -1 13.0000 139.900 0 12 299
1985240N08148 1985 76 WP MM TESS 1985-08-30 15:00:00 NR 13.2762 139.370 main 1501 1440 __________P___ -1 13.2762 139.370 0 12 297
1985240N08148 1985 76 WP MM TESS 1985-08-30 18:00:00 NR 13.5369 138.810 main 1440 1391 __________P___ -1 13.5369 138.810 0 12 294
1985240N08148 1985 76 WP MM TESS 1985-08-30 21:00:00 NR 13.7792 138.220 main 1383 1324 __________P___ -1 13.7792 138.220 0 13 292
1985240N08148 1985 76 WP MM TESS 1985-08-31 00:00:00 NR 14.0000 137.600 main 1324 1265 __________O___ -1 14.0000 137.600 0 13 289
1985240N08148 1985 76 WP MM TESS 1985-08-31 03:00:00 NR 14.2131 136.929 main 1254 1194 __________P___ -1 14.2131 136.929 0 14 287
1985240N08148 1985 76 WP MM TESS 1985-08-31 06:00:00 NR 14.4029 136.235 main 1184 1123 __________P___ -1 14.4029 136.235 0 14 285
1985240N08148 1985 76 WP MM TESS 1985-08-31 09:00:00 NR 14.5662 135.548 main 1114 1054 __________P___ -1 14.5662 135.548 0 13 283
1985240N08148 1985 76 WP MM TESS 1985-08-31 12:00:00 NR 14.7000 134.900 main 1054 1005 __________O___ -1 14.7000 134.900 0 11 282
1985240N08148 1985 76 WP MM TESS 1985-08-31 15:00:00 NR 14.8017 134.392 main 1005 947 __________P___ -1 14.8017 134.392 0 11 281
1985240N08148 1985 76 WP MM TESS 1985-08-31 18:00:00 TS 14.9180 133.778 main 947 889 O_O_______P___ jtwc_wp WP161985 15.0000 134.000 25 -1 15.0000 133.000 1 23 1006 14.8769 133.916 0 12 279
1985240N08148 1985 76 WP MM TESS 1985-08-31 21:00:00 TS 14.9758 133.199 main 889 839 P_P_______P___ WP161985 14.9926 133.445 27 -1 15.0327 132.537 1 26 1004 14.9389 133.408 0 11 276
1985240N08148 1985 76 WP MM TESS 1985-09-01 00:00:00 TS 15.0417 132.617 1004 tokyo main 829 764 OOOO______O___ jtwc_wp WP161985 15.0000 132.800 30 -1 15.1000 133.000 2 1004 0 0 0 15.1000 132.000 1 29 1003 15.1000 132.800 TD 25 1003 15.0000 132.800 1 30 14 276
1985240N08148 1985 76 WP MM TESS 1985-09-01 03:00:00 TS 15.1109 131.809 main 754 682 PPPP______P___ WP161985 15.0349 132.002 32 -1 15.0513 131.957 2 1003 0 0 15.2147 131.325 1 29 1002 15.1106 131.905 TD 27 1002 15.1131 131.976 1 32 16 274
1985240N08148 1985 76 WP MM TESS 1985-09-01 06:00:00 TS 15.1544 130.923 1002 tokyo main 673 599 OOOO______P___ jtwc_wp WP161985 15.1000 131.100 35 0 15.0000 131.000 2 1002 0 0 0 15.3000 130.500 1 29 1002 15.1000 131.000 TD 30 1002 15.2197 131.054 1 35 17 272
1985240N08148 1985 76 WP MM TESS 1985-09-01 09:00:00 TS 15.1602 130.002 main 591 506 PPPP______P___ WP161985 15.2226 130.143 37 0 14.9493 130.178 2 1001 0 0 15.2805 129.500 1 29 1001 15.0573 130.085 TD 30 1001 15.2912 130.104 1 37 18 270
1985240N08148 1985 76 WP MM TESS 1985-09-01 12:00:00 TS 15.1400 129.100 40 1000 tokyo main 506 440 OOOO______O___ jtwc_wp WP161985 15.3000 129.200 40 0 14.9000 129.400 3 40 1000 0 9 60 60 0 15.2000 128.500 1 29 1000 15.0000 129.200 TD 30 1000 15.3000 129.200 2 40 17 267
1985240N08148 1985 76 WP MM TESS 1985-09-01 15:00:00 TS 15.0704 128.261 main 440 366 PPPP______P___ WP161985 15.2447 128.347 42 0 14.8501 128.528 3 42 998 0 9 60 60 15.1148 127.660 1 33 997 14.9573 128.355 TD 30 1000 15.1852 128.413 2 42 15 263
1985240N08148 1985 76 WP MM TESS 1985-09-01 18:00:00 TS 14.9628 127.517 45 996 tokyo main 355 287 OOOO______P___ jtwc_wp WP161985 15.1000 127.600 45 0 14.8000 127.700 3 45 996 0 9 60 60 0 15.0000 127.000 2 38 995 14.9000 127.600 TD 30 1000 15.0138 127.686 2 45 13 259
1985240N08148 1985 76 WP MM TESS 1985-09-01 21:00:00 TS 14.8163 126.900 main 287 233 PPPP______P___ WP161985 14.8921 126.970 47 0 14.7347 127.005 3 45 995 0 9 55 55 14.8270 126.555 2 38 993 14.7922 126.955 TD 32 997 14.8355 127.016 2 47 12 257
1985240N08148 1985 76 WP MM TESS 1985-09-02 00:00:00 TS 14.7000 126.360 45 994 tokyo main 233 175 OOOO______O___ jtwc_wp WP161985 14.7000 126.400 50 0 14.7000 126.400 3 45 994 0 9 50 50 0 14.7000 126.200 2 38 992 14.7000 126.400 TS 35 994 14.7000 126.400 2 50 11 262
1985240N08148 1985 76 WP MM TESS 1985-09-02 03:00:00 TS 14.6704 125.808 main 175 132 PPPP______P___ WP161985 14.6050 125.778 52 0 14.7274 125.820 3 45 992 0 9 100 100 14.6974 125.765 2 43 990 14.6848 125.878 TS 37 991 14.6375 125.801 2 51 10 270
1985240N08148 1985 76 WP MM TESS 1985-09-02 06:00:00 TS 14.7059 125.291 45 990 tokyo main 132 104 OOOO______P___ jtwc_wp WP161985 14.6000 125.200 55 0 14.8000 125.300 3 45 990 0 9 150 150 0 14.8000 125.300 3 48 988 14.7000 125.400 TS 40 989 14.6293 125.253 2 52 10 277
1985240N08148 1985 76 WP MM TESS 1985-09-02 09:00:00 TS 14.7812 124.809 main 104 95 PPPP______P___ WP161985 14.6623 124.720 55 0 14.8924 124.828 3 47 987 0 9 150 150 14.9850 124.793 3 48 987 14.6848 124.950 TS 42 987 14.6815 124.753 2 53 9 282
1985240N08148 1985 76 WP MM TESS 1985-09-02 12:00:00 TS 14.9000 124.360 50 985 tokyo main 101 100 OOOO______O___ jtwc_wp WP161985 14.8000 124.300 55 0 15.0000 124.400 4 50 985 0 9 150 150 0 15.2000 124.300 3 48 986 14.7000 124.500 TS 45 985 14.8000 124.300 2 55 9 286
1985240N08148 1985 76 WP MM TESS 1985-09-02 15:00:00 TS 15.0233 123.925 main 114 114 PPPP______P___ WP161985 14.9699 123.885 57 0 15.0849 123.985 4 52 985 0 9 175 135 15.3424 123.877 3 48 986 14.7550 123.992 TS 47 984 14.9644 123.886 2 57 9 290
1985240N08148 1985 76 WP MM TESS 1985-09-02 18:00:00 TS 15.1988 123.522 55 985 tokyo main 129 124 OOOO______P___ jtwc_wp WP161985 15.2000 123.500 60 0 15.2000 123.600 4 55 985 9 30 30 4 200 120 0 15.5000 123.500 3 48 986 14.9000 123.500 STS 50 983 15.1942 123.512 2 60 9 299
1985240N08148 1985 76 WP MM TESS 1985-09-02 21:00:00 TS 15.4383 123.145 main 131 85 PPPP______P___ WP161985 15.4849 123.135 62 0 15.3474 123.242 4 57 985 9 45 45 4 200 110 15.7425 123.128 3 53 984 15.1400 123.062 STS 52 983 15.4770 123.157 2 62 9 308
1985240N08148 1985 76 WP MM TESS 1985-09-03 00:00:00 TS 15.7400 122.800 60 985 tokyo main 85 33 OOOO______O___ jtwc_wp WP161985 15.8000 122.800 65 1 15.6000 122.900 4 60 985 9 60 60 1 200 100 0 16.0000 122.800 3 58 983 15.5000 122.700 STS 55 983 15.8000 122.800 3 65 9 317
1985240N08148 1985 76 WP MM TESS 1985-09-03 03:00:00 TS 16.0888 122.522 main 33 0 PPPP______P___ WP161985 16.0773 122.522 67 1 16.0122 122.587 4 57 985 9 60 60 1 250 200 16.1923 122.565 3 58 984 15.9997 122.472 STS 57 983 16.1623 122.464 3 57 9 322
1985240N08148 1985 76 WP MM TESS 1985-09-03 06:00:00 TS 16.4711 122.202 55 985 tokyo main 0 0 OOOO______P___ jtwc_wp WP161985 16.4000 122.200 70 1 16.5000 122.200 4 55 985 9 60 60 9 300 300 0 16.4000 122.300 3 58 985 16.5000 122.200 STS 60 983 16.5557 122.112 3 50 11 317
1985240N08148 1985 76 WP MM TESS 1985-09-03 09:00:00 TS 16.8701 121.752 main 0 0 PPPP______P___ WP161985 16.8645 121.790 52 0 17.0026 121.638 4 55 985 9 60 60 9 300 300 16.6923 121.917 3 58 985 16.8450 121.710 STS 57 984 16.9463 121.704 3 42 12 307
1985240N08148 1985 76 WP MM TESS 1985-09-03 12:00:00 TS 17.2200 121.180 55 985 tokyo main 0 0 OOOO______O___ jtwc_wp WP161985 17.3000 121.200 35 0 17.4000 121.000 4 55 985 9 60 60 9 300 300 0 17.0000 121.400 3 58 985 17.1000 121.100 STS 55 985 17.3000 121.200 2 35 13 295
1985240N08148 1985 76 WP MM TESS 1985-09-03 15:00:00 TS 17.4421 120.488 main 0 0 PPPP______P___ WP161985 17.5308 120.315 37 0 17.5372 120.407 4 55 985 9 60 60 9 300 300 17.2577 120.722 3 58 985 17.3074 120.465 STS 52 986 17.5774 120.530 2 38 14 286
1985240N08148 1985 76 WP MM TESS 1985-09-03 18:00:00 TS 17.6223 119.753 55 985 tokyo main 53 53 OOOO______P___ jtwc_wp WP161985 17.7000 119.400 40 0 17.6000 119.800 4 55 985 9 60 60 9 300 300 0 17.5000 120.000 3 58 985 17.5000 119.800 STS 50 988 17.8117 119.767 2 42 14 287
1985240N08148 1985 76 WP MM TESS 1985-09-03 21:00:00 TS 17.8421 119.091 main 129 129 PPPP______P___ WP161985 17.9493 118.755 45 0 17.7773 119.165 4 55 985 9 55 55 9 275 275 17.7419 119.415 3 58 985 17.7273 119.150 STS 50 986 18.0148 118.971 2 46 13 290
1985240N08148 1985 76 WP MM TESS 1985-09-04 00:00:00 TS 18.0800 118.440 55 985 tokyo main 208 208 OOOO______O___ jtwc_wp WP161985 18.2000 118.200 50 0 18.0000 118.500 4 55 985 9 50 50 9 250 250 0 18.0000 118.800 3 58 985 18.0000 118.500 STS 50 985 18.2000 118.200 2 50 14 291
1985240N08148 1985 76 WP MM TESS 1985-09-04 03:00:00 TS 18.3424 117.749 main 286 286 PPPP______P___ WP161985 18.4147 117.607 52 0 18.2500 117.793 4 52 982 9 45 45 9 325 225 18.2929 118.000 3 58 982 18.3574 117.835 STS 52 983 18.3968 117.510 2 51 14 292
1985240N08148 1985 76 WP MM TESS 1985-09-04 06:00:00 TS 18.5959 117.072 50 980 tokyo main 356 356 OOOO______P___ jtwc_wp WP161985 18.6000 117.000 55 0 18.5000 117.100 4 50 980 9 40 40 5 400 200 0 18.6000 117.200 3 58 980 18.7000 117.200 STS 55 982 18.5793 116.860 2 52 13 291
1985240N08148 1985 76 WP MM TESS 1985-09-04 09:00:00 TS 18.8217 116.451 main 423 404 PPPP______P___ WP161985 18.7651 116.335 55 0 18.7223 116.470 4 52 980 9 50 50 5 450 200 18.9296 116.555 3 58 980 18.9446 116.642 STS 57 978 18.7471 116.254 2 53 12 290
1985240N08148 1985 76 WP MM TESS 1985-09-04 12:00:00 TS 19.0000 115.880 55 980 tokyo main 404 375 OOOO______O___ jtwc_wp WP161985 18.9000 115.700 55 0 18.9000 115.900 4 55 980 9 60 60 5 500 200 0 19.2000 116.000 3 58 980 19.1000 116.100 STS 60 975 18.9000 115.700 2 55 11 285
1985240N08148 1985 76 WP MM TESS 1985-09-04 15:00:00 TS 19.1040 115.331 main 372 352 PPPP______P___ WP161985 18.9998 115.162 57 0 19.0073 115.377 4 57 980 9 60 60 5 450 200 19.3373 115.470 3 58 977 19.1651 115.485 STS 60 972 19.0104 115.162 2 57 10 280
1985240N08148 1985 76 WP MM TESS 1985-09-04 18:00:00 TS 19.1824 114.836 60 980 tokyo main 350 325 OOOO______P___ jtwc_wp WP161985 19.1000 114.700 60 0 19.1000 114.900 4 60 980 9 60 60 5 400 200 0 19.4000 115.000 3 58 975 19.2000 114.900 STS 60 970 19.1120 114.679 2 60 9 281
1985240N08148 1985 76 WP MM TESS 1985-09-04 21:00:00 TS 19.2739 114.387 main 325 298 PPPP______P___ WP161985 19.2199 114.270 62 0 19.2275 114.420 4 60 977 9 60 60 5 400 200 19.4273 114.585 3 63 972 19.2623 114.405 STS 62 970 19.2325 114.256 2 62 8 287
1985240N08148 1985 76 WP MM TESS 1985-09-05 00:00:00 TS 19.4200 114.000 60 975 tokyo main 298 267 OOOO______O___ jtwc_wp WP161985 19.4000 113.900 65 1 19.4000 114.000 4 60 975 9 60 60 5 400 200 0 19.5000 114.200 4 68 970 19.4000 114.000 T 65 970 19.4000 113.900 4 65 8 299
1985240N08148 1985 76 WP MM TESS 1985-09-05 03:00:00 TS 19.6658 113.650 main 253 216 PPPP______P___ WP161985 19.6775 113.563 67 1 19.6199 113.655 4 65 972 9 67 67 5 400 200 19.7126 113.763 4 68 970 19.6699 113.663 T 67 967 19.6491 113.606 4 67 8 313
1985240N08148 1985 76 WP MM TESS 1985-09-05 06:00:00 TS 19.9694 113.375 70 970 tokyo main 216 178 OOOO______P___ jtwc_wp WP161985 20.0000 113.300 70 1 19.9000 113.400 5 70 970 9 75 75 4 400 200 0 20.0000 113.400 4 68 970 20.0000 113.400 T 70 965 19.9468 113.375 4 70 8 325
1985240N08148 1985 76 WP MM TESS 1985-09-05 09:00:00 TS 20.2781 113.194 main 178 140 PPPP______P___ WP161985 20.2999 113.135 72 1 20.2349 113.242 5 70 970 9 75 75 4 400 200 20.2848 113.227 4 68 967 20.2999 113.185 T 72 965 20.2711 113.181 4 72 7 334
1985240N08148 1985 76 WP MM TESS 1985-09-05 12:00:00 TS 20.6000 113.040 70 970 tokyo main 140 102 OOOO______O___ jtwc_wp WP161985 20.6000 113.000 75 1 20.6000 113.100 5 70 970 9 75 75 4 400 200 0 20.6000 113.100 4 68 965 20.6000 113.000 T 75 965 20.6000 113.000 4 75 7 332
1985240N08148 1985 76 WP MM TESS 1985-09-05 15:00:00 TS 20.9216 112.831 main 102 63 PPPP______P___ WP161985 20.9000 112.807 75 1 20.9575 112.872 5 70 970 9 75 75 4 350 200 20.9426 112.858 4 72 965 20.8924 112.807 T 75 965 20.9156 112.811 4 68 8 328
1985240N08148 1985 76 WP MM TESS 1985-09-05 18:00:00 TS 21.2449 112.602 70 970 tokyo main 63 24 OOOO______P___ jtwc_wp WP161985 21.2000 112.600 75 1 21.3000 112.600 5 70 970 9 75 75 4 300 200 0 21.3000 112.600 4 77 965 21.2000 112.600 T 75 965 21.2180 112.613 4 62 8 327
1985240N08148 1985 76 WP MM TESS 1985-09-05 21:00:00 TS 21.5645 112.386 main 15 0 PPPP______P___ WP161985 21.4849 112.407 62 0 21.6074 112.315 5 67 972 9 75 75 4 300 200 21.6498 112.430 4 67 970 21.5424 112.380 T 67 967 21.5113 112.408 4 56 8 326
1985240N08148 1985 76 WP MM TESS 1985-09-06 00:00:00 TS 21.9000 112.125 65 975 tokyo main 0 0 OOOO______O___ jtwc_wp WP161985 21.8000 112.200 50 0 21.9000 112.000 5 65 975 9 75 75 4 300 200 0 22.0000 112.200 3 58 975 21.9000 112.100 STS 60 970 21.8000 112.200 2 50 9 320
1985240N08148 1985 76 WP MM TESS 1985-09-06 03:00:00 TS 22.2501 111.754 main 0 0 PPPP__________ WP161985 22.1801 111.960 37 0 22.1775 111.657 5 60 977 9 62 62 4 275 225 22.3652 111.780 3 48 977 22.2425 111.722 STS 52 975 2 10 314
1985240N08148 1985 76 WP MM TESS 1985-09-06 06:00:00 TS 22.6000 111.331 55 980 tokyo main 0 0 OOOO__________ jtwc_wp WP161985 22.6000 111.700 25 -1 22.5000 111.300 4 55 980 9 50 50 9 250 250 0 22.7000 111.300 2 38 980 22.6000 111.300 TS 45 980 2 11 313
1985240N08148 1985 76 WP MM TESS 1985-09-06 09:00:00 TS 22.9741 110.909 main 0 0 _PPP__________ WP161985 -1 22.9500 110.943 4 50 985 9 9 200 200 22.9649 110.885 2 30 985 23.0074 110.900 TS 40 985 2 10 315
1985240N08148 1985 76 WP MM TESS 1985-09-06 12:00:00 TS 23.3273 110.536 45 990 tokyo main 0 0 _OOO__________ -1 23.4000 110.600 3 45 990 0 9 150 150 0 23.2000 110.500 1 23 990 23.4000 110.500 TS 35 990 9 315
1985240N08148 1985 76 WP MM TESS 1985-09-06 15:00:00 TS 23.6134 110.206 main 0 0 _PPP__________ -1 23.7072 110.322 3 991 0 9 23.4649 110.142 1 21 992 23.7227 110.100 TS 30 993 8 312
1985240N08148 1985 76 WP MM TESS 1985-09-06 18:00:00 TS 23.8667 109.878 992 tokyo main 0 0 _OOO__________ -1 24.0000 110.000 2 992 0 0 0 23.7000 109.800 0 19 994 24.0000 109.700 TD 25 996 8 309
1985240N08148 1985 76 WP MM TESS 1985-09-06 21:00:00 TS 24.1475 109.487 main 0 0 _PP___________ -1 24.4451 109.531 2 994 0 0 23.8500 109.442 0 18 995 TD 9 305
1985240N08148 1985 76 WP MM TESS 1985-09-07 00:00:00 TS 24.4000 109.050 996 tokyo main 0 0 _OO___________ -1 24.8000 109.000 2 996 0 0 0 24.0000 109.100 0 17 996 9 301
1985240N08148 1985 76 WP MM TESS 1985-09-07 03:00:00 TS 24.5958 108.680 main 0 0 _PP___________ -1 24.8973 108.500 2 997 0 0 24.2943 108.860 0 17 997 8 289
1985240N08148 1985 76 WP MM TESS 1985-09-07 06:00:00 TS 24.6500 108.250 998 tokyo main 0 0 _OO___________ -1 24.8000 108.000 2 998 0 0 0 24.5000 108.500 0 17 998 10 263
1985240N08148 1985 76 WP MM TESS 1985-09-07 09:00:00 TS 24.4805 107.632 main 0 0 _PP___________ -1 24.5723 107.500 2 999 0 0 24.3886 107.764 0 17 999 12 251
1985240N08148 1985 76 WP MM TESS 1985-09-07 12:00:00 TS 24.2500 107.000 1000 tokyo main 0 0 _OO___________ -1 24.3000 107.000 2 1000 0 0 0 24.2000 107.000 0 17 1000 11 251
1985240N08148 1985 76 WP MM TESS 1985-09-07 15:00:00 TS 24.1372 106.509 main 0 0 _PP___________ -1 24.1123 106.500 2 1000 0 0 24.1620 106.518 0 17 1000 8 260
1985240N08148 1985 76 WP MM TESS 1985-09-07 18:00:00 TS 24.1000 106.100 1000 tokyo main 0 0 _OO___________ -1 24.0000 106.000 2 1000 0 0 0 24.2000 106.200 0 17 1000 7 270
1985240N08148 1985 76 WP MM TESS 1985-09-07 21:00:00 TS 24.1348 105.746 main 0 0 _PP___________ -1 23.9775 105.478 2 1000 0 0 24.2921 106.015 0 17 1000 6 279
1985240N08148 1985 76 WP MM TESS 1985-09-08 00:00:00 TS 24.2000 105.400 1000 tokyo main 0 0 _OO___________ -1 24.0000 105.000 2 1000 0 0 0 24.4000 105.800 0 17 1001 7 279
1985240N08148 1985 76 WP MM TESS 1985-09-08 03:00:00 TS 24.2513 104.975 main 0 0 _PP___________ -1 23.9998 104.620 2 1000 0 0 24.5028 105.330 0 17 1001 8 271
1985240N08148 1985 76 WP MM TESS 1985-09-08 06:00:00 TS 24.2143 104.514 1000 tokyo main 0 0 _OO___________ -1 24.0000 104.300 2 1000 0 0 0 24.5000 104.800 0 17 1001 8 259
1985240N08148 1985 76 WP MM TESS 1985-09-08 09:00:00 TS 24.1023 104.131 main 0 0 _PP___________ -1 23.9997 104.015 2 1001 0 0 24.3074 104.364 0 17 1001 7 253
1985240N08148 1985 76 WP MM TESS 1985-09-08 12:00:00 TS 24.0000 103.760 1002 tokyo main 0 0 _OO___________ -1 24.0000 103.700 2 1002 0 0 0 24.0000 104.000 0 17 1002 8 263
1985240N08148 1985 76 WP MM TESS 1985-09-08 15:00:00 TS 24.0001 103.265 main 0 0 _P____________ -1 24.0001 103.265 2 1003 0 0 0 9 270
1985240N08148 1985 76 WP MM TESS 1985-09-08 18:00:00 TS 24.0000 102.800 1004 tokyo main 0 0 _O____________ -1 24.0000 102.800 2 1004 0 0 0 8 270
1985240N08148 1985 76 WP MM TESS 1985-09-08 21:00:00 TS 24.0001 102.383 main 0 0 _P____________ -1 24.0001 102.383 2 1004 0 0 7 270
1985240N08148 1985 76 WP MM TESS 1985-09-09 00:00:00 TS 24.0000 102.000 1004 tokyo main 0 _O____________ -1 24.0000 102.000 2 1004 0 0 0 7 270

Digital Typhoon Data and Search

About IBTrACS Database

This database is a web-friendly format of International Best Track Archive for Climate Stewardship (IBTrACS), a global best track data archive curated by NOAA dating back to 1842.

Updated: 2021-12-06